sensor_id;sensor_type;location;lat;lon;timestamp;P1;durP1;ratioP1;P2;durP2;ratioP2
48189;SDS011;33980;47.436;18.926;2022-08-03T00:00:40;1.95;;;0.68;;
48189;SDS011;33980;47.436;18.926;2022-08-03T00:03:09;0.80;;;0.80;;
48189;SDS011;33980;47.436;18.926;2022-08-03T00:05:38;1.67;;;1.10;;
48189;SDS011;33980;47.436;18.926;2022-08-03T00:08:27;0.95;;;0.80;;
48189;SDS011;33980;47.436;18.926;2022-08-03T00:10:57;0.70;;;0.60;;
48189;SDS011;33980;47.436;18.926;2022-08-03T00:13:29;1.62;;;0.88;;
48189;SDS011;33980;47.436;18.926;2022-08-03T00:15:58;1.85;;;0.90;;
48189;SDS011;33980;47.436;18.926;2022-08-03T00:18:27;0.68;;;0.60;;
48189;SDS011;33980;47.436;18.926;2022-08-03T00:20:56;1.33;;;0.80;;
48189;SDS011;33980;47.436;18.926;2022-08-03T00:23:26;2.08;;;1.35;;
48189;SDS011;33980;47.436;18.926;2022-08-03T00:26:17;1.80;;;1.08;;
48189;SDS011;33980;47.436;18.926;2022-08-03T00:29:08;1.25;;;0.88;;
48189;SDS011;33980;47.436;18.926;2022-08-03T00:31:37;2.45;;;1.00;;
48189;SDS011;33980;47.436;18.926;2022-08-03T00:37:19;1.52;;;1.20;;
48189;SDS011;33980;47.436;18.926;2022-08-03T00:40:07;2.53;;;1.20;;
48189;SDS011;33980;47.436;18.926;2022-08-03T00:42:48;1.20;;;1.00;;
48189;SDS011;33980;47.436;18.926;2022-08-03T00:45:20;1.35;;;1.08;;
48189;SDS011;33980;47.436;18.926;2022-08-03T00:47:52;1.20;;;0.90;;
48189;SDS011;33980;47.436;18.926;2022-08-03T00:50:22;1.55;;;0.80;;
48189;SDS011;33980;47.436;18.926;2022-08-03T00:52:52;1.67;;;0.90;;
48189;SDS011;33980;47.436;18.926;2022-08-03T00:55:23;0.77;;;0.75;;
48189;SDS011;33980;47.436;18.926;2022-08-03T00:57:52;1.15;;;0.90;;
48189;SDS011;33980;47.436;18.926;2022-08-03T01:00:23;1.40;;;1.12;;
48189;SDS011;33980;47.436;18.926;2022-08-03T01:02:52;1.65;;;1.05;;
48189;SDS011;33980;47.436;18.926;2022-08-03T01:05:21;1.87;;;1.12;;
48189;SDS011;33980;47.436;18.926;2022-08-03T01:08:01;2.62;;;1.33;;
48189;SDS011;33980;47.436;18.926;2022-08-03T01:10:36;3.22;;;1.75;;
48189;SDS011;33980;47.436;18.926;2022-08-03T01:13:14;2.00;;;1.12;;
48189;SDS011;33980;47.436;18.926;2022-08-03T01:16:11;1.83;;;1.20;;
48189;SDS011;33980;47.436;18.926;2022-08-03T01:19:07;2.58;;;1.27;;
48189;SDS011;33980;47.436;18.926;2022-08-03T01:21:50;2.12;;;1.35;;
48189;SDS011;33980;47.436;18.926;2022-08-03T01:24:43;1.83;;;1.20;;
48189;SDS011;33980;47.436;18.926;2022-08-03T01:27:39;1.25;;;0.90;;
48189;SDS011;33980;47.436;18.926;2022-08-03T01:30:17;2.28;;;1.25;;
48189;SDS011;33980;47.436;18.926;2022-08-03T01:32:50;1.98;;;1.10;;
48189;SDS011;33980;47.436;18.926;2022-08-03T01:35:30;3.15;;;1.33;;
48189;SDS011;33980;47.436;18.926;2022-08-03T01:38:07;3.20;;;1.65;;
48189;SDS011;33980;47.436;18.926;2022-08-03T01:40:42;3.03;;;1.62;;
48189;SDS011;33980;47.436;18.926;2022-08-03T01:43:15;1.52;;;1.00;;
48189;SDS011;33980;47.436;18.926;2022-08-03T01:46:08;1.90;;;0.88;;
48189;SDS011;33980;47.436;18.926;2022-08-03T01:48:40;1.90;;;1.30;;
48189;SDS011;33980;47.436;18.926;2022-08-03T01:51:12;2.33;;;1.30;;
48189;SDS011;33980;47.436;18.926;2022-08-03T01:53:44;2.45;;;1.30;;
48189;SDS011;33980;47.436;18.926;2022-08-03T01:56:16;3.12;;;1.58;;
48189;SDS011;33980;47.436;18.926;2022-08-03T01:58:48;2.33;;;1.40;;
48189;SDS011;33980;47.436;18.926;2022-08-03T02:01:22;2.00;;;1.25;;
48189;SDS011;33980;47.436;18.926;2022-08-03T02:04:13;1.73;;;1.15;;
48189;SDS011;33980;47.436;18.926;2022-08-03T02:06:46;2.10;;;1.30;;
48189;SDS011;33980;47.436;18.926;2022-08-03T02:09:32;2.67;;;1.40;;
48189;SDS011;33980;47.436;18.926;2022-08-03T02:12:04;2.80;;;1.52;;
48189;SDS011;33980;47.436;18.926;2022-08-03T02:14:38;4.82;;;1.20;;
48189;SDS011;33980;47.436;18.926;2022-08-03T02:17:11;2.15;;;1.40;;
48189;SDS011;33980;47.436;18.926;2022-08-03T02:19:43;2.20;;;1.40;;
48189;SDS011;33980;47.436;18.926;2022-08-03T02:22:14;2.62;;;1.37;;
48189;SDS011;33980;47.436;18.926;2022-08-03T02:37:06;2.65;;;1.60;;
48189;SDS011;33980;47.436;18.926;2022-08-03T02:39:38;2.42;;;1.33;;
48189;SDS011;33980;47.436;18.926;2022-08-03T02:42:10;2.67;;;1.60;;
48189;SDS011;33980;47.436;18.926;2022-08-03T02:44:43;2.25;;;1.50;;
48189;SDS011;33980;47.436;18.926;2022-08-03T02:47:15;2.08;;;1.33;;
48189;SDS011;33980;47.436;18.926;2022-08-03T02:49:49;1.83;;;1.23;;
48189;SDS011;33980;47.436;18.926;2022-08-03T02:52:22;3.10;;;1.12;;
48189;SDS011;33980;47.436;18.926;2022-08-03T02:54:54;2.97;;;1.30;;
48189;SDS011;33980;47.436;18.926;2022-08-03T02:57:27;2.37;;;1.40;;
48189;SDS011;33980;47.436;18.926;2022-08-03T02:59:58;2.70;;;1.50;;
48189;SDS011;33980;47.436;18.926;2022-08-03T03:02:29;3.33;;;1.80;;
48189;SDS011;33980;47.436;18.926;2022-08-03T03:05:00;3.67;;;2.03;;
48189;SDS011;33980;47.436;18.926;2022-08-03T03:07:52;3.10;;;1.97;;
48189;SDS011;33980;47.436;18.926;2022-08-03T03:10:24;3.83;;;1.83;;
48189;SDS011;33980;47.436;18.926;2022-08-03T03:12:54;5.18;;;2.40;;
48189;SDS011;33980;47.436;18.926;2022-08-03T03:15:24;2.70;;;1.50;;
48189;SDS011;33980;47.436;18.926;2022-08-03T03:17:54;2.78;;;1.55;;
48189;SDS011;33980;47.436;18.926;2022-08-03T03:20:22;3.45;;;2.00;;
48189;SDS011;33980;47.436;18.926;2022-08-03T03:22:58;3.30;;;2.03;;
48189;SDS011;33980;47.436;18.926;2022-08-03T03:25:27;3.10;;;1.90;;
48189;SDS011;33980;47.436;18.926;2022-08-03T03:27:58;4.70;;;1.80;;
48189;SDS011;33980;47.436;18.926;2022-08-03T03:30:28;2.20;;;1.58;;
48189;SDS011;33980;47.436;18.926;2022-08-03T03:32:57;3.47;;;2.28;;
48189;SDS011;33980;47.436;18.926;2022-08-03T03:35:26;4.37;;;2.22;;
48189;SDS011;33980;47.436;18.926;2022-08-03T03:37:57;4.47;;;2.20;;
48189;SDS011;33980;47.436;18.926;2022-08-03T03:40:27;3.87;;;2.33;;
48189;SDS011;33980;47.436;18.926;2022-08-03T03:42:55;6.68;;;2.00;;
48189;SDS011;33980;47.436;18.926;2022-08-03T03:45:24;3.50;;;2.15;;
48189;SDS011;33980;47.436;18.926;2022-08-03T03:47:54;3.28;;;1.98;;
48189;SDS011;33980;47.436;18.926;2022-08-03T03:50:22;4.57;;;2.20;;
48189;SDS011;33980;47.436;18.926;2022-08-03T03:52:51;3.97;;;1.80;;
48189;SDS011;33980;47.436;18.926;2022-08-03T03:55:21;3.60;;;2.33;;
48189;SDS011;33980;47.436;18.926;2022-08-03T03:57:50;3.37;;;2.10;;
48189;SDS011;33980;47.436;18.926;2022-08-03T04:00:19;3.50;;;1.77;;
48189;SDS011;33980;47.436;18.926;2022-08-03T04:02:48;3.75;;;2.10;;
48189;SDS011;33980;47.436;18.926;2022-08-03T04:05:17;4.25;;;2.37;;
48189;SDS011;33980;47.436;18.926;2022-08-03T04:08:06;3.37;;;2.10;;
48189;SDS011;33980;47.436;18.926;2022-08-03T04:11:00;3.90;;;2.20;;
48189;SDS011;33980;47.436;18.926;2022-08-03T04:13:43;8.07;;;1.95;;
48189;SDS011;33980;47.436;18.926;2022-08-03T04:16:17;3.10;;;2.00;;
48189;SDS011;33980;47.436;18.926;2022-08-03T04:21:18;2.87;;;2.00;;
48189;SDS011;33980;47.436;18.926;2022-08-03T04:26:20;3.78;;;2.40;;
48189;SDS011;33980;47.436;18.926;2022-08-03T04:28:50;4.07;;;2.25;;
48189;SDS011;33980;47.436;18.926;2022-08-03T04:31:19;4.57;;;2.30;;
48189;SDS011;33980;47.436;18.926;2022-08-03T04:33:50;3.67;;;2.30;;
48189;SDS011;33980;47.436;18.926;2022-08-03T04:36:20;3.47;;;2.13;;
48189;SDS011;33980;47.436;18.926;2022-08-03T04:38:55;4.18;;;2.47;;
48189;SDS011;33980;47.436;18.926;2022-08-03T04:41:28;7.45;;;2.33;;
48189;SDS011;33980;47.436;18.926;2022-08-03T04:43:58;4.80;;;2.30;;
48189;SDS011;33980;47.436;18.926;2022-08-03T04:46:37;5.70;;;2.95;;
48189;SDS011;33980;47.436;18.926;2022-08-03T04:49:13;3.75;;;2.20;;
48189;SDS011;33980;47.436;18.926;2022-08-03T04:51:41;4.45;;;2.70;;
48189;SDS011;33980;47.436;18.926;2022-08-03T04:54:11;3.75;;;2.03;;
48189;SDS011;33980;47.436;18.926;2022-08-03T04:56:41;4.60;;;2.15;;
48189;SDS011;33980;47.436;18.926;2022-08-03T04:59:10;5.35;;;2.40;;
48189;SDS011;33980;47.436;18.926;2022-08-03T05:01:40;4.70;;;3.05;;
48189;SDS011;33980;47.436;18.926;2022-08-03T05:04:09;3.47;;;2.17;;
48189;SDS011;33980;47.436;18.926;2022-08-03T05:06:37;4.07;;;2.00;;
48189;SDS011;33980;47.436;18.926;2022-08-03T05:09:14;4.35;;;2.62;;
48189;SDS011;33980;47.436;18.926;2022-08-03T05:12:05;7.95;;;2.50;;
48189;SDS011;33980;47.436;18.926;2022-08-03T05:14:35;2.92;;;1.85;;
48189;SDS011;33980;47.436;18.926;2022-08-03T05:17:05;4.97;;;2.62;;
48189;SDS011;33980;47.436;18.926;2022-08-03T05:19:34;3.83;;;2.20;;
48189;SDS011;33980;47.436;18.926;2022-08-03T05:22:03;5.03;;;2.25;;
48189;SDS011;33980;47.436;18.926;2022-08-03T05:24:31;4.40;;;2.35;;
48189;SDS011;33980;47.436;18.926;2022-08-03T05:27:00;4.68;;;2.37;;
48189;SDS011;33980;47.436;18.926;2022-08-03T05:29:30;3.60;;;2.00;;
48189;SDS011;33980;47.436;18.926;2022-08-03T05:31:59;4.03;;;2.23;;
48189;SDS011;33980;47.436;18.926;2022-08-03T05:34:34;3.67;;;1.98;;
48189;SDS011;33980;47.436;18.926;2022-08-03T05:37:03;3.37;;;1.87;;
48189;SDS011;33980;47.436;18.926;2022-08-03T05:39:34;4.03;;;1.95;;
48189;SDS011;33980;47.436;18.926;2022-08-03T05:42:03;4.78;;;2.40;;
48189;SDS011;33980;47.436;18.926;2022-08-03T05:44:33;3.40;;;2.15;;
48189;SDS011;33980;47.436;18.926;2022-08-03T05:47:05;4.22;;;2.45;;
48189;SDS011;33980;47.436;18.926;2022-08-03T05:49:33;4.15;;;2.08;;
48189;SDS011;33980;47.436;18.926;2022-08-03T05:52:02;4.18;;;2.00;;
48189;SDS011;33980;47.436;18.926;2022-08-03T05:54:45;7.53;;;3.15;;
48189;SDS011;33980;47.436;18.926;2022-08-03T05:57:23;4.40;;;2.30;;
48189;SDS011;33980;47.436;18.926;2022-08-03T05:59:54;7.28;;;2.53;;
48189;SDS011;33980;47.436;18.926;2022-08-03T06:02:25;5.78;;;2.65;;
48189;SDS011;33980;47.436;18.926;2022-08-03T06:04:54;6.03;;;2.85;;
48189;SDS011;33980;47.436;18.926;2022-08-03T06:07:22;4.53;;;2.40;;
48189;SDS011;33980;47.436;18.926;2022-08-03T06:09:51;4.68;;;2.50;;
48189;SDS011;33980;47.436;18.926;2022-08-03T06:12:40;5.75;;;2.33;;
48189;SDS011;33980;47.436;18.926;2022-08-03T06:15:10;4.80;;;2.85;;
48189;SDS011;33980;47.436;18.926;2022-08-03T06:17:45;7.75;;;1.90;;
48189;SDS011;33980;47.436;18.926;2022-08-03T06:20:15;9.23;;;3.92;;
48189;SDS011;33980;47.436;18.926;2022-08-03T06:22:44;4.75;;;2.40;;
48189;SDS011;33980;47.436;18.926;2022-08-03T06:25:26;3.53;;;2.20;;
48189;SDS011;33980;47.436;18.926;2022-08-03T06:27:55;6.53;;;2.50;;
48189;SDS011;33980;47.436;18.926;2022-08-03T06:30:25;4.28;;;2.17;;
48189;SDS011;33980;47.436;18.926;2022-08-03T06:32:54;5.03;;;2.37;;
48189;SDS011;33980;47.436;18.926;2022-08-03T06:35:22;3.85;;;2.50;;
48189;SDS011;33980;47.436;18.926;2022-08-03T06:37:51;4.05;;;1.98;;
48189;SDS011;33980;47.436;18.926;2022-08-03T06:40:20;5.00;;;2.92;;
48189;SDS011;33980;47.436;18.926;2022-08-03T06:42:55;6.12;;;2.70;;
48189;SDS011;33980;47.436;18.926;2022-08-03T06:45:26;5.18;;;2.50;;
48189;SDS011;33980;47.436;18.926;2022-08-03T06:48:02;5.28;;;2.30;;
48189;SDS011;33980;47.436;18.926;2022-08-03T06:50:32;6.03;;;3.20;;
48189;SDS011;33980;47.436;18.926;2022-08-03T06:53:01;6.18;;;3.00;;
48189;SDS011;33980;47.436;18.926;2022-08-03T06:55:30;4.30;;;2.30;;
48189;SDS011;33980;47.436;18.926;2022-08-03T06:58:08;4.37;;;2.40;;
48189;SDS011;33980;47.436;18.926;2022-08-03T07:00:41;5.53;;;2.28;;
48189;SDS011;33980;47.436;18.926;2022-08-03T07:03:10;4.80;;;2.42;;
48189;SDS011;33980;47.436;18.926;2022-08-03T07:05:38;5.72;;;3.05;;
48189;SDS011;33980;47.436;18.926;2022-08-03T07:08:07;4.60;;;2.53;;
48189;SDS011;33980;47.436;18.926;2022-08-03T07:10:36;4.80;;;2.78;;
48189;SDS011;33980;47.436;18.926;2022-08-03T07:13:05;4.15;;;2.33;;
48189;SDS011;33980;47.436;18.926;2022-08-03T07:15:34;6.15;;;2.95;;
48189;SDS011;33980;47.436;18.926;2022-08-03T07:18:23;5.35;;;2.67;;
48189;SDS011;33980;47.436;18.926;2022-08-03T07:20:56;3.67;;;2.03;;
48189;SDS011;33980;47.436;18.926;2022-08-03T07:23:25;8.80;;;2.87;;
48189;SDS011;33980;47.436;18.926;2022-08-03T07:25:53;5.40;;;2.58;;
48189;SDS011;33980;47.436;18.926;2022-08-03T07:28:22;4.57;;;2.72;;
48189;SDS011;33980;47.436;18.926;2022-08-03T07:30:51;5.28;;;2.80;;
48189;SDS011;33980;47.436;18.926;2022-08-03T07:33:19;5.87;;;2.50;;
48189;SDS011;33980;47.436;18.926;2022-08-03T07:35:49;5.68;;;2.60;;
48189;SDS011;33980;47.436;18.926;2022-08-03T07:38:18;4.95;;;2.17;;
48189;SDS011;33980;47.436;18.926;2022-08-03T07:40:47;5.10;;;2.80;;
48189;SDS011;33980;47.436;18.926;2022-08-03T07:43:16;4.60;;;2.40;;
48189;SDS011;33980;47.436;18.926;2022-08-03T07:45:45;6.35;;;3.20;;
48189;SDS011;33980;47.436;18.926;2022-08-03T07:48:15;4.00;;;2.12;;
48189;SDS011;33980;47.436;18.926;2022-08-03T07:50:43;4.33;;;2.37;;
48189;SDS011;33980;47.436;18.926;2022-08-03T07:53:14;5.47;;;2.30;;
48189;SDS011;33980;47.436;18.926;2022-08-03T07:55:42;5.32;;;2.50;;
48189;SDS011;33980;47.436;18.926;2022-08-03T07:58:11;4.20;;;2.53;;
48189;SDS011;33980;47.436;18.926;2022-08-03T08:00:50;4.05;;;2.17;;
48189;SDS011;33980;47.436;18.926;2022-08-03T08:03:20;6.30;;;2.78;;
48189;SDS011;33980;47.436;18.926;2022-08-03T08:05:48;5.50;;;2.47;;
48189;SDS011;33980;47.436;18.926;2022-08-03T08:08:18;4.35;;;2.35;;
48189;SDS011;33980;47.436;18.926;2022-08-03T08:10:47;5.10;;;2.15;;
48189;SDS011;33980;47.436;18.926;2022-08-03T08:13:24;8.00;;;2.72;;
48189;SDS011;33980;47.436;18.926;2022-08-03T08:15:53;4.50;;;2.40;;
48189;SDS011;33980;47.436;18.926;2022-08-03T08:18:22;5.07;;;2.97;;
48189;SDS011;33980;47.436;18.926;2022-08-03T08:20:51;4.70;;;2.40;;
48189;SDS011;33980;47.436;18.926;2022-08-03T08:23:21;5.00;;;2.78;;
48189;SDS011;33980;47.436;18.926;2022-08-03T08:26:09;4.37;;;2.45;;
48189;SDS011;33980;47.436;18.926;2022-08-03T08:28:38;5.00;;;2.17;;
48189;SDS011;33980;47.436;18.926;2022-08-03T08:31:07;4.05;;;2.22;;
48189;SDS011;33980;47.436;18.926;2022-08-03T08:33:35;5.30;;;2.67;;
48189;SDS011;33980;47.436;18.926;2022-08-03T08:36:24;5.28;;;2.53;;
48189;SDS011;33980;47.436;18.926;2022-08-03T08:38:54;5.32;;;2.60;;
48189;SDS011;33980;47.436;18.926;2022-08-03T08:41:23;4.35;;;2.10;;
48189;SDS011;33980;47.436;18.926;2022-08-03T08:43:58;8.40;;;2.08;;
48189;SDS011;33980;47.436;18.926;2022-08-03T08:46:28;4.37;;;2.10;;
48189;SDS011;33980;47.436;18.926;2022-08-03T08:49:00;5.72;;;2.50;;
48189;SDS011;33980;47.436;18.926;2022-08-03T08:51:32;6.45;;;2.20;;
48189;SDS011;33980;47.436;18.926;2022-08-03T08:54:25;3.60;;;2.10;;
48189;SDS011;33980;47.436;18.926;2022-08-03T08:56:54;4.85;;;2.37;;
48189;SDS011;33980;47.436;18.926;2022-08-03T08:59:26;8.13;;;2.53;;
48189;SDS011;33980;47.436;18.926;2022-08-03T09:02:14;7.90;;;2.97;;
48189;SDS011;33980;47.436;18.926;2022-08-03T09:04:44;4.62;;;2.37;;
48189;SDS011;33980;47.436;18.926;2022-08-03T09:09:48;3.55;;;2.15;;
48189;SDS011;33980;47.436;18.926;2022-08-03T09:12:37;5.43;;;2.47;;
48189;SDS011;33980;47.436;18.926;2022-08-03T09:15:15;10.40;;;3.03;;
48189;SDS011;33980;47.436;18.926;2022-08-03T09:17:45;8.30;;;3.45;;
48189;SDS011;33980;47.436;18.926;2022-08-03T09:20:18;3.85;;;2.22;;
48189;SDS011;33980;47.436;18.926;2022-08-03T09:22:53;4.47;;;2.35;;
48189;SDS011;33980;47.436;18.926;2022-08-03T09:25:31;5.47;;;2.25;;
48189;SDS011;33980;47.436;18.926;2022-08-03T09:28:05;4.85;;;1.90;;
48189;SDS011;33980;47.436;18.926;2022-08-03T09:30:37;4.28;;;2.00;;
48189;SDS011;33980;47.436;18.926;2022-08-03T09:33:08;6.40;;;2.67;;
48189;SDS011;33980;47.436;18.926;2022-08-03T09:35:39;4.43;;;2.33;;
48189;SDS011;33980;47.436;18.926;2022-08-03T09:38:24;3.55;;;1.90;;
48189;SDS011;33980;47.436;18.926;2022-08-03T09:40:55;3.53;;;2.03;;
48189;SDS011;33980;47.436;18.926;2022-08-03T09:43:28;4.43;;;2.03;;
48189;SDS011;33980;47.436;18.926;2022-08-03T09:46:13;4.03;;;2.00;;
48189;SDS011;33980;47.436;18.926;2022-08-03T09:48:42;4.05;;;1.80;;
48189;SDS011;33980;47.436;18.926;2022-08-03T09:51:10;2.08;;;1.33;;
48189;SDS011;33980;47.436;18.926;2022-08-03T09:54:01;3.87;;;2.08;;
48189;SDS011;33980;47.436;18.926;2022-08-03T09:56:39;3.58;;;1.90;;
48189;SDS011;33980;47.436;18.926;2022-08-03T09:59:09;4.75;;;2.37;;
48189;SDS011;33980;47.436;18.926;2022-08-03T10:01:38;3.75;;;2.10;;
48189;SDS011;33980;47.436;18.926;2022-08-03T10:04:11;4.35;;;2.25;;
48189;SDS011;33980;47.436;18.926;2022-08-03T10:06:43;4.78;;;2.00;;
48189;SDS011;33980;47.436;18.926;2022-08-03T10:09:13;3.15;;;2.20;;
48189;SDS011;33980;47.436;18.926;2022-08-03T10:11:44;3.67;;;1.65;;
48189;SDS011;33980;47.436;18.926;2022-08-03T10:14:14;2.78;;;1.42;;
48189;SDS011;33980;47.436;18.926;2022-08-03T10:16:46;3.03;;;1.83;;
48189;SDS011;33980;47.436;18.926;2022-08-03T10:19:15;2.67;;;1.52;;
48189;SDS011;33980;47.436;18.926;2022-08-03T10:21:45;2.75;;;1.67;;
48189;SDS011;33980;47.436;18.926;2022-08-03T10:24:19;2.72;;;1.45;;
48189;SDS011;33980;47.436;18.926;2022-08-03T10:26:52;3.35;;;1.80;;
48189;SDS011;33980;47.436;18.926;2022-08-03T10:29:27;2.62;;;1.67;;
48189;SDS011;33980;47.436;18.926;2022-08-03T10:31:57;3.60;;;2.03;;
48189;SDS011;33980;47.436;18.926;2022-08-03T10:34:26;4.03;;;1.98;;
48189;SDS011;33980;47.436;18.926;2022-08-03T10:36:58;4.45;;;1.87;;
48189;SDS011;33980;47.436;18.926;2022-08-03T10:39:28;3.30;;;1.73;;
48189;SDS011;33980;47.436;18.926;2022-08-03T10:42:02;3.55;;;1.58;;
48189;SDS011;33980;47.436;18.926;2022-08-03T10:44:40;3.20;;;1.73;;
48189;SDS011;33980;47.436;18.926;2022-08-03T10:47:09;9.70;;;1.92;;
48189;SDS011;33980;47.436;18.926;2022-08-03T10:49:38;5.72;;;2.92;;
48189;SDS011;33980;47.436;18.926;2022-08-03T10:52:09;6.45;;;1.77;;
48189;SDS011;33980;47.436;18.926;2022-08-03T10:54:57;2.95;;;1.55;;
48189;SDS011;33980;47.436;18.926;2022-08-03T10:58:01;2.50;;;1.60;;
48189;SDS011;33980;47.436;18.926;2022-08-03T11:00:47;4.03;;;2.08;;
48189;SDS011;33980;47.436;18.926;2022-08-03T11:03:16;2.95;;;1.48;;
48189;SDS011;33980;47.436;18.926;2022-08-03T11:05:45;3.12;;;1.67;;
48189;SDS011;33980;47.436;18.926;2022-08-03T11:08:24;3.20;;;1.50;;
48189;SDS011;33980;47.436;18.926;2022-08-03T11:11:00;1.87;;;1.08;;
48189;SDS011;33980;47.436;18.926;2022-08-03T11:13:32;2.10;;;1.10;;
48189;SDS011;33980;47.436;18.926;2022-08-03T11:16:01;2.33;;;1.08;;
48189;SDS011;33980;47.436;18.926;2022-08-03T11:18:35;1.52;;;0.98;;
48189;SDS011;33980;47.436;18.926;2022-08-03T11:27:25;2.20;;;1.20;;
48189;SDS011;33980;47.436;18.926;2022-08-03T11:30:04;4.60;;;1.75;;
48189;SDS011;33980;47.436;18.926;2022-08-03T11:32:50;4.10;;;1.80;;
48189;SDS011;33980;47.436;18.926;2022-08-03T11:35:20;8.75;;;2.10;;
48189;SDS011;33980;47.436;18.926;2022-08-03T11:38:02;2.55;;;1.55;;
48189;SDS011;33980;47.436;18.926;2022-08-03T11:40:34;6.20;;;2.37;;
48189;SDS011;33980;47.436;18.926;2022-08-03T11:43:05;3.70;;;1.27;;
48189;SDS011;33980;47.436;18.926;2022-08-03T11:45:36;2.80;;;1.62;;
48189;SDS011;33980;47.436;18.926;2022-08-03T11:48:12;3.28;;;1.40;;
48189;SDS011;33980;47.436;18.926;2022-08-03T11:50:42;2.05;;;1.20;;
48189;SDS011;33980;47.436;18.926;2022-08-03T11:53:15;4.20;;;1.60;;
48189;SDS011;33980;47.436;18.926;2022-08-03T11:55:47;3.20;;;1.40;;
48189;SDS011;33980;47.436;18.926;2022-08-03T11:58:16;6.03;;;1.45;;
48189;SDS011;33980;47.436;18.926;2022-08-03T12:01:07;3.78;;;1.48;;
48189;SDS011;33980;47.436;18.926;2022-08-03T12:03:40;2.35;;;1.45;;
48189;SDS011;33980;47.436;18.926;2022-08-03T12:06:09;3.92;;;1.95;;
48189;SDS011;33980;47.436;18.926;2022-08-03T12:08:39;3.28;;;1.65;;
48189;SDS011;33980;47.436;18.926;2022-08-03T12:11:09;1.52;;;0.98;;
48189;SDS011;33980;47.436;18.926;2022-08-03T12:13:40;2.65;;;1.37;;
48189;SDS011;33980;47.436;18.926;2022-08-03T12:16:31;2.33;;;1.48;;
48189;SDS011;33980;47.436;18.926;2022-08-03T12:19:00;2.30;;;1.20;;
48189;SDS011;33980;47.436;18.926;2022-08-03T12:21:31;3.35;;;1.30;;
48189;SDS011;33980;47.436;18.926;2022-08-03T12:24:00;2.33;;;1.40;;
48189;SDS011;33980;47.436;18.926;2022-08-03T12:26:42;3.17;;;1.30;;
48189;SDS011;33980;47.436;18.926;2022-08-03T12:29:25;2.17;;;1.30;;
48189;SDS011;33980;47.436;18.926;2022-08-03T12:31:56;2.10;;;1.17;;
48189;SDS011;33980;47.436;18.926;2022-08-03T12:37:17;2.28;;;1.27;;
48189;SDS011;33980;47.436;18.926;2022-08-03T12:39:49;1.52;;;0.98;;
48189;SDS011;33980;47.436;18.926;2022-08-03T12:42:32;2.47;;;1.33;;
48189;SDS011;33980;47.436;18.926;2022-08-03T12:45:18;2.58;;;1.60;;
48189;SDS011;33980;47.436;18.926;2022-08-03T12:47:52;2.15;;;1.40;;
48189;SDS011;33980;47.436;18.926;2022-08-03T12:50:22;3.55;;;1.55;;
48189;SDS011;33980;47.436;18.926;2022-08-03T12:52:52;2.60;;;1.23;;
48189;SDS011;33980;47.436;18.926;2022-08-03T12:55:21;3.65;;;1.35;;
48189;SDS011;33980;47.436;18.926;2022-08-03T12:57:50;2.08;;;1.15;;
48189;SDS011;33980;47.436;18.926;2022-08-03T13:00:19;2.90;;;1.30;;
48189;SDS011;33980;47.436;18.926;2022-08-03T13:03:00;1.67;;;1.05;;
48189;SDS011;33980;47.436;18.926;2022-08-03T13:05:50;1.75;;;0.95;;
48189;SDS011;33980;47.436;18.926;2022-08-03T13:08:18;1.95;;;1.10;;
48189;SDS011;33980;47.436;18.926;2022-08-03T13:10:48;1.35;;;0.98;;
48189;SDS011;33980;47.436;18.926;2022-08-03T13:13:17;1.67;;;1.23;;
48189;SDS011;33980;47.436;18.926;2022-08-03T13:15:48;3.15;;;1.48;;
48189;SDS011;33980;47.436;18.926;2022-08-03T13:18:19;2.03;;;1.08;;
48189;SDS011;33980;47.436;18.926;2022-08-03T13:20:48;2.40;;;1.10;;
48189;SDS011;33980;47.436;18.926;2022-08-03T13:23:18;5.68;;;2.17;;
48189;SDS011;33980;47.436;18.926;2022-08-03T13:25:49;1.80;;;1.17;;
48189;SDS011;33980;47.436;18.926;2022-08-03T13:28:22;1.87;;;1.20;;
48189;SDS011;33980;47.436;18.926;2022-08-03T13:30:51;1.83;;;1.00;;
48189;SDS011;33980;47.436;18.926;2022-08-03T13:33:22;3.37;;;1.50;;
48189;SDS011;33980;47.436;18.926;2022-08-03T13:35:51;1.73;;;1.00;;
48189;SDS011;33980;47.436;18.926;2022-08-03T13:38:19;7.53;;;2.00;;
48189;SDS011;33980;47.436;18.926;2022-08-03T13:40:53;4.30;;;1.30;;
48189;SDS011;33980;47.436;18.926;2022-08-03T13:43:22;4.43;;;1.65;;
48189;SDS011;33980;47.436;18.926;2022-08-03T13:45:51;2.80;;;1.25;;
48189;SDS011;33980;47.436;18.926;2022-08-03T13:48:25;3.42;;;1.60;;
48189;SDS011;33980;47.436;18.926;2022-08-03T13:51:03;3.10;;;1.70;;
48189;SDS011;33980;47.436;18.926;2022-08-03T13:53:49;3.65;;;1.48;;
48189;SDS011;33980;47.436;18.926;2022-08-03T13:56:18;2.90;;;1.10;;
48189;SDS011;33980;47.436;18.926;2022-08-03T13:58:46;3.75;;;2.08;;
48189;SDS011;33980;47.436;18.926;2022-08-03T14:01:15;6.85;;;1.33;;
48189;SDS011;33980;47.436;18.926;2022-08-03T14:04:06;2.03;;;1.20;;
48189;SDS011;33980;47.436;18.926;2022-08-03T14:06:48;13.68;;;3.08;;
48189;SDS011;33980;47.436;18.926;2022-08-03T14:09:17;5.05;;;1.58;;
48189;SDS011;33980;47.436;18.926;2022-08-03T14:11:45;6.75;;;1.75;;
48189;SDS011;33980;47.436;18.926;2022-08-03T14:14:34;7.40;;;2.25;;
48189;SDS011;33980;47.436;18.926;2022-08-03T14:17:03;5.57;;;2.97;;
48189;SDS011;33980;47.436;18.926;2022-08-03T14:19:35;2.78;;;1.35;;
48189;SDS011;33980;47.436;18.926;2022-08-03T14:22:20;1.87;;;0.90;;
48189;SDS011;33980;47.436;18.926;2022-08-03T14:24:48;2.08;;;1.10;;
48189;SDS011;33980;47.436;18.926;2022-08-03T14:27:17;2.78;;;1.37;;
48189;SDS011;33980;47.436;18.926;2022-08-03T14:29:46;4.80;;;1.50;;
48189;SDS011;33980;47.436;18.926;2022-08-03T14:32:15;1.17;;;1.08;;
48189;SDS011;33980;47.436;18.926;2022-08-03T14:34:45;6.00;;;1.35;;
48189;SDS011;33980;47.436;18.926;2022-08-03T14:37:14;1.77;;;1.05;;
48189;SDS011;33980;47.436;18.926;2022-08-03T14:39:42;2.17;;;1.27;;
48189;SDS011;33980;47.436;18.926;2022-08-03T14:42:28;2.70;;;1.17;;
48189;SDS011;33980;47.436;18.926;2022-08-03T14:44:57;6.10;;;2.03;;
48189;SDS011;33980;47.436;18.926;2022-08-03T14:47:33;8.35;;;2.50;;
48189;SDS011;33980;47.436;18.926;2022-08-03T14:50:23;1.40;;;0.85;;
48189;SDS011;33980;47.436;18.926;2022-08-03T14:53:08;3.25;;;1.40;;
48189;SDS011;33980;47.436;18.926;2022-08-03T14:55:36;1.98;;;0.90;;
48189;SDS011;33980;47.436;18.926;2022-08-03T14:58:17;6.80;;;1.40;;
48189;SDS011;33980;47.436;18.926;2022-08-03T15:00:47;2.20;;;1.10;;
48189;SDS011;33980;47.436;18.926;2022-08-03T15:05:50;2.28;;;1.25;;
48189;SDS011;33980;47.436;18.926;2022-08-03T15:08:22;2.00;;;0.90;;
48189;SDS011;33980;47.436;18.926;2022-08-03T15:10:51;4.18;;;1.40;;
48189;SDS011;33980;47.436;18.926;2022-08-03T15:13:20;5.30;;;1.12;;
48189;SDS011;33980;47.436;18.926;2022-08-03T15:15:51;2.53;;;1.27;;
48189;SDS011;33980;47.436;18.926;2022-08-03T15:18:20;3.10;;;1.23;;
48189;SDS011;33980;47.436;18.926;2022-08-03T15:20:48;2.33;;;1.15;;
48189;SDS011;33980;47.436;18.926;2022-08-03T15:23:18;2.75;;;1.60;;
48189;SDS011;33980;47.436;18.926;2022-08-03T15:25:47;2.67;;;1.27;;
48189;SDS011;33980;47.436;18.926;2022-08-03T15:28:36;1.58;;;1.02;;
48189;SDS011;33980;47.436;18.926;2022-08-03T15:31:05;4.07;;;1.73;;
48189;SDS011;33980;47.436;18.926;2022-08-03T15:33:33;1.92;;;1.27;;
48189;SDS011;33980;47.436;18.926;2022-08-03T15:36:02;4.00;;;1.50;;
48189;SDS011;33980;47.436;18.926;2022-08-03T15:38:33;2.15;;;1.37;;
48189;SDS011;33980;47.436;18.926;2022-08-03T15:41:01;4.07;;;2.20;;
48189;SDS011;33980;47.436;18.926;2022-08-03T15:43:30;2.10;;;1.10;;